createdAt,value
2022-11-15T00:00:40.794Z,11.05
2022-11-15T00:06:08.088Z,10.99
2022-11-15T00:11:29.443Z,10.88
2022-11-15T00:16:50.433Z,11.10
2022-11-15T00:22:11.841Z,11.29
2022-11-15T00:27:33.243Z,11.35
2022-11-15T00:32:54.459Z,11.30
2022-11-15T00:38:15.531Z,11.08
2022-11-15T00:43:36.586Z,10.84
2022-11-15T00:48:57.604Z,10.74
2022-11-15T00:54:21.239Z,10.77
2022-11-15T00:59:41.977Z,10.77
2022-11-15T01:05:03.805Z,10.75
2022-11-15T01:10:26.876Z,10.69
2022-11-15T01:15:48.178Z,10.76
2022-11-15T01:21:16.757Z,10.80
2022-11-15T01:26:37.534Z,10.65
2022-11-15T01:31:58.763Z,10.50
2022-11-15T01:37:19.594Z,10.60
2022-11-15T01:42:40.378Z,10.55
2022-11-15T01:48:01.790Z,10.63
2022-11-15T01:53:23.924Z,10.84
2022-11-15T01:58:46.485Z,11.19
2022-11-15T02:04:17.999Z,11.69
2022-11-15T02:09:39.642Z,11.81
2022-11-15T02:15:01.500Z,12.28
2022-11-15T02:21:07.008Z,12.53
2022-11-15T02:27:03.133Z,12.83
2022-11-15T02:32:45.384Z,12.49
2022-11-15T02:38:32.678Z,11.63
2022-11-15T02:44:13.348Z,10.93
2022-11-15T02:49:36.140Z,10.29
2022-11-15T02:54:58.990Z,10.53
2022-11-15T03:00:23.536Z,10.30
2022-11-15T03:05:57.029Z,10.45
2022-11-15T03:11:22.316Z,10.21
2022-11-15T03:16:59.143Z,9.78
2022-11-15T03:22:24.196Z,9.43
2022-11-15T03:27:51.730Z,9.43
2022-11-15T03:33:13.521Z,9.98
2022-11-15T03:38:36.412Z,10.82
2022-11-15T03:44:29.491Z,12.03
2022-11-15T03:50:08.591Z,10.92
2022-11-15T03:55:29.395Z,10.39
2022-11-15T04:00:50.217Z,11.52
2022-11-15T04:06:12.652Z,12.11
2022-11-15T04:11:34.047Z,11.86
2022-11-15T04:16:54.757Z,11.76
2022-11-15T04:22:34.225Z,11.81
2022-11-15T04:27:55.022Z,11.09
2022-11-15T04:33:18.514Z,10.83
2022-11-15T04:38:39.356Z,10.67
2022-11-15T04:44:00.385Z,10.53
2022-11-15T04:49:22.538Z,10.54
2022-11-15T04:54:43.804Z,10.64
2022-11-15T05:00:11.571Z,10.79
2022-11-15T05:05:32.476Z,10.63
2022-11-15T05:10:53.626Z,10.61
2022-11-15T05:16:17.511Z,10.60
2022-11-15T05:21:39.764Z,10.42
2022-11-15T05:27:01.190Z,10.40
2022-11-15T05:32:22.508Z,10.31
2022-11-15T05:37:43.523Z,10.36
2022-11-15T05:43:07.494Z,10.29
2022-11-15T05:48:28.602Z,10.10
2022-11-15T05:53:57.304Z,9.92
2022-11-15T05:59:19.355Z,10.11
2022-11-15T06:04:42.942Z,10.22
2022-11-15T06:10:04.737Z,10.13
2022-11-15T06:15:26.913Z,9.97
2022-11-15T06:20:48.071Z,9.86
2022-11-15T06:26:09.155Z,9.62
2022-11-15T06:31:29.833Z,9.59
2022-11-15T06:36:51.100Z,9.41
2022-11-15T06:42:13.172Z,9.34
2022-11-15T06:47:34.434Z,9.30
2022-11-15T06:52:56.210Z,9.35
2022-11-15T06:58:17.307Z,9.53
2022-11-15T07:03:41.462Z,9.68
2022-11-15T07:09:05.806Z,9.65
2022-11-15T07:14:26.905Z,9.66
2022-11-15T07:19:47.831Z,9.69
2022-11-15T07:25:10.284Z,9.80
2022-11-15T07:30:31.829Z,9.91
2022-11-15T07:35:53.238Z,10.03
2022-11-15T07:41:14.309Z,10.32
2022-11-15T07:46:35.505Z,10.60
2022-11-15T07:51:56.485Z,10.79
2022-11-15T07:57:17.501Z,11.17
2022-11-15T08:02:39.780Z,11.31
2022-11-15T08:08:01.371Z,11.42
2022-11-15T08:13:22.454Z,11.50
2022-11-15T08:18:43.437Z,11.58
2022-11-15T08:24:04.682Z,11.36
2022-11-15T08:29:25.530Z,11.43
2022-11-15T08:34:47.954Z,11.64
2022-11-15T08:40:11.712Z,11.81
2022-11-15T08:45:36.402Z,12.03
2022-11-15T08:50:58.129Z,11.81
2022-11-15T08:56:20.637Z,11.89
2022-11-15T09:01:41.798Z,12.18
2022-11-15T09:07:03.167Z,12.75
2022-11-15T09:12:24.276Z,12.99
2022-11-15T09:17:48.372Z,13.42
2022-11-15T09:23:09.523Z,13.37
2022-11-15T09:28:31.854Z,13.60
2022-11-15T09:33:54.684Z,13.92
2022-11-15T09:39:18.410Z,14.04
2022-11-15T09:44:58.026Z,14.26
2022-11-15T09:50:30.550Z,14.70
2022-11-15T09:56:01.937Z,14.84
2022-11-15T10:01:18.036Z,14.97
2022-11-15T10:06:27.993Z,14.50
2022-11-15T10:11:38.613Z,14.28
2022-11-15T10:17:05.732Z,14.14
2022-11-15T10:22:33.824Z,14.06
2022-11-15T10:27:37.012Z,14.21
2022-11-15T10:32:46.084Z,14.11
2022-11-15T10:37:49.207Z,14.17
2022-11-15T10:43:19.845Z,14.20
2022-11-15T10:48:24.071Z,14.39
2022-11-15T10:53:29.739Z,14.42
2022-11-15T10:58:39.123Z,14.43
2022-11-15T11:03:43.855Z,14.24
2022-11-15T11:09:09.976Z,14.16
2022-11-15T11:14:34.508Z,14.14
2022-11-15T11:20:09.932Z,14.24
2022-11-15T11:25:44.922Z,14.18
2022-11-15T11:31:15.956Z,14.27
2022-11-15T11:36:50.469Z,14.27
2022-11-15T11:42:03.060Z,14.32
2022-11-15T11:47:08.682Z,14.43
2022-11-15T11:52:15.113Z,14.64
2022-11-15T11:57:56.348Z,14.88
2022-11-15T12:03:31.353Z,15.15
2022-11-15T12:08:39.726Z,15.38
2022-11-15T12:13:43.886Z,15.45
2022-11-15T12:18:54.479Z,15.20
2022-11-15T12:24:05.467Z,14.91
2022-11-15T12:29:17.959Z,14.88
2022-11-15T12:34:20.565Z,14.74
2022-11-15T12:40:05.680Z,14.59
2022-11-15T12:45:29.475Z,14.57
2022-11-15T12:50:54.597Z,14.58
2022-11-15T12:56:17.833Z,14.59
2022-11-15T13:01:38.743Z,14.46
2022-11-15T13:06:48.308Z,14.46
2022-11-15T13:11:52.320Z,14.47
2022-11-15T13:17:01.804Z,14.47
2022-11-15T13:22:28.403Z,14.51
2022-11-15T13:27:32.119Z,14.34
2022-11-15T13:32:34.764Z,14.25
2022-11-15T13:37:37.224Z,14.26
2022-11-15T13:42:44.647Z,14.29
2022-11-15T13:47:55.419Z,14.32
2022-11-15T13:53:02.912Z,14.31
2022-11-15T13:58:07.400Z,14.20
2022-11-15T14:03:29.003Z,14.15
2022-11-15T14:08:31.871Z,14.07
2022-11-15T14:13:35.288Z,13.82
2022-11-15T14:18:50.436Z,13.73
2022-11-15T14:23:53.067Z,13.60
2022-11-15T14:28:55.462Z,13.47
2022-11-15T14:33:57.856Z,13.52
2022-11-15T14:39:06.234Z,13.58
2022-11-15T14:44:11.732Z,13.56
2022-11-15T14:49:17.359Z,13.51
2022-11-15T14:54:19.761Z,13.54
2022-11-15T14:59:22.212Z,13.51
2022-11-15T15:04:24.599Z,13.42
2022-11-15T15:09:29.644Z,13.40
2022-11-15T15:14:32.228Z,13.47
2022-11-15T15:19:34.913Z,13.41
2022-11-15T15:24:37.339Z,13.41
2022-11-15T15:29:42.728Z,13.29
2022-11-15T15:34:45.152Z,13.18
2022-11-15T15:39:47.567Z,13.23
2022-11-15T15:44:51.387Z,13.24
2022-11-15T15:49:53.786Z,13.22
2022-11-15T15:54:56.418Z,13.21
2022-11-15T15:59:58.870Z,13.16
2022-11-15T16:05:01.225Z,13.23
2022-11-15T16:10:26.039Z,13.18
2022-11-15T16:15:31.314Z,13.15
2022-11-15T16:20:43.611Z,13.19
2022-11-15T16:25:54.804Z,13.21
2022-11-15T16:31:06.502Z,13.21
2022-11-15T16:36:28.430Z,13.19
2022-11-15T16:41:33.136Z,13.42
2022-11-15T16:46:35.927Z,13.53
2022-11-15T16:51:39.481Z,13.54
2022-11-15T16:56:42.655Z,13.50
2022-11-15T17:01:50.835Z,13.60
2022-11-15T17:06:53.624Z,13.56
2022-11-15T17:11:56.151Z,13.51
2022-11-15T17:16:58.594Z,13.61
2022-11-15T17:22:01.062Z,13.66
2022-11-15T17:27:03.656Z,13.51
2022-11-15T17:32:06.317Z,13.44
2022-11-15T17:37:08.706Z,13.33
2022-11-15T17:42:11.160Z,13.29
2022-11-15T17:47:13.581Z,13.15
2022-11-15T17:52:16.015Z,13.07
2022-11-15T17:57:18.463Z,13.03
2022-11-15T18:02:20.928Z,12.98
2022-11-15T18:07:23.464Z,12.95
2022-11-15T18:12:25.875Z,13.09
2022-11-15T18:17:28.536Z,13.05
2022-11-15T18:22:31.192Z,13.05
2022-11-15T18:27:33.709Z,13.12
2022-11-15T18:32:36.347Z,13.19
2022-11-15T18:37:38.784Z,13.11
2022-11-15T18:42:41.222Z,13.08
2022-11-15T18:47:43.640Z,12.93
2022-11-15T18:52:46.091Z,13.00
2022-11-15T18:57:48.482Z,12.91
2022-11-15T19:02:53.645Z,12.88
2022-11-15T19:07:56.090Z,12.84
2022-11-15T19:12:58.511Z,12.81
2022-11-15T19:18:01.704Z,12.88
2022-11-15T19:23:04.544Z,12.91
2022-11-15T19:28:07.189Z,13.07
2022-11-15T19:33:09.594Z,13.14
2022-11-15T19:38:12.230Z,13.25
2022-11-15T19:43:14.759Z,13.29
2022-11-15T19:48:17.228Z,13.26
2022-11-15T19:53:20.051Z,13.23
2022-11-15T19:58:24.597Z,13.23
2022-11-15T20:03:26.991Z,13.12
2022-11-15T20:08:29.678Z,13.11
2022-11-15T20:13:32.427Z,13.21
2022-11-15T20:18:35.991Z,13.33
2022-11-15T20:23:39.326Z,13.21
2022-11-15T20:28:44.082Z,13.04
2022-11-15T20:33:46.491Z,12.99
2022-11-15T20:38:48.867Z,12.92
2022-11-15T20:43:51.764Z,12.90
2022-11-15T20:48:54.196Z,13.13
2022-11-15T20:53:56.701Z,13.01
2022-11-15T20:58:59.280Z,12.86
2022-11-15T21:04:01.695Z,12.88
2022-11-15T21:09:23.096Z,13.00
2022-11-15T21:14:25.556Z,12.94
2022-11-15T21:19:34.019Z,12.86
2022-11-15T21:24:39.163Z,12.89
2022-11-15T21:29:45.625Z,12.98
2022-11-15T21:34:48.054Z,13.06
2022-11-15T21:39:50.491Z,13.07
2022-11-15T21:44:53.536Z,13.05
2022-11-15T21:49:55.910Z,12.83
2022-11-15T21:54:58.288Z,12.74
2022-11-15T22:00:20.635Z,12.91
2022-11-15T22:05:23.031Z,12.73
2022-11-15T22:10:25.427Z,12.58
2022-11-15T22:15:27.945Z,12.54
2022-11-15T22:20:44.587Z,12.65
2022-11-15T22:25:47.732Z,12.76
2022-11-15T22:30:52.662Z,12.58
2022-11-15T22:35:56.118Z,12.67
2022-11-15T22:41:02.488Z,12.64
2022-11-15T22:46:05.568Z,12.51
2022-11-15T22:51:08.443Z,12.42
2022-11-15T22:56:10.921Z,12.32
2022-11-15T23:01:22.050Z,12.23
2022-11-15T23:06:24.548Z,12.13
2022-11-15T23:11:45.761Z,12.00
2022-11-15T23:16:48.270Z,11.96
2022-11-15T23:22:09.175Z,11.83
2022-11-15T23:27:15.226Z,11.86
2022-11-15T23:32:36.567Z,11.86
2022-11-15T23:37:39.075Z,11.73
2022-11-15T23:42:41.511Z,12.06
2022-11-15T23:47:45.054Z,12.11
2022-11-15T23:52:47.490Z,11.96
2022-11-15T23:57:50.038Z,11.80
